Boyes Springs, California
Current Conditions -  °F | °C
As of 6:15 AM on Monday 20 Oct 2014 (Local Time) from KO69 Reporting Station
Clear Clear  
Wind Chill: 55°   Ceiling: Unl
Heat Index: 55°   Visibility: 10mi
Dew Point: 54°   Wind: 3mph
Humidity: 94%   Direction: 80°E
Pressure: 29.92"   Gusts: NA
Location:  38.3176°N, 122.485°W
Report Text: KO69 201315Z AUTO 08003KT 10SM CLR 13/12 A2992 RMK AO1
Loading
Personal Weather Stations






























Interactive Weather Map
Tropical Storm Tracking
New forecast layout! Learn more

10-Day Weather Forecast

Advertisements
Track Severe Weather on mobile